NWS Watch, Warning, Advisory or Statement is in effect for Boone County, KY. View Alert

Weather Station Data

Station Data Captured at Five Minute Intervals Since Midnight Local Time


Date Time Temp. RH % Dew Pt. Wind Speed Wind Dir. Peak Wind Wind Chill Pressure Precip. Solar W/m2 ET
11/11/19 7:25p 31.9 86 28.2 7.0 NW 12.0 25.4 30.039 0.00 0 0.000
11/11/19 7:20p 31.9 86 28.2 7.0 NW 15.0 25.4 30.024 0.00 0 0.000
11/11/19 7:15p 32.0 86 28.3 6.0 NW 15.0 26.2 30.019 0.00 0 0.000
11/11/19 7:10p 32.1 86 28.4 6.0 NNW 10.0 26.3 30.022 0.00 0 0.000
11/11/19 7:05p 32.1 86 28.4 6.0 NW 12.0 26.3 30.029 0.00 0 0.000
11/11/19 7:00p 32.2 86 28.5 5.0 NNW 11.0 27.3 30.020 0.00 0 0.001
11/11/19 6:55p 32.2 86 28.5 6.0 NW 11.0 26.5 30.015 0.00 0 0.000
11/11/19 6:50p 32.3 86 28.6 6.0 NNW 14.0 26.6 30.011 0.00 0 0.000
11/11/19 6:45p 32.4 86 28.7 4.0 NNW 10.0 28.5 30.013 0.00 0 0.000
11/11/19 6:40p 32.4 86 28.7 3.0 NW 9.0 29.8 30.014 0.00 0 0.000
11/11/19 6:35p 32.4 86 28.7 3.0 N 9.0 29.8 30.012 0.00 0 0.000
11/11/19 6:30p 32.4 86 28.7 6.0 NNW 12.0 26.7 30.012 0.00 0 0.000
11/11/19 6:25p 32.5 85 28.5 7.0 NNW 14.0 26.1 30.004 0.00 0 0.000
11/11/19 6:20p 32.8 86 29.1 6.0 NW 13.0 27.2 30.007 0.00 0 0.000
11/11/19 6:15p 32.9 86 29.2 5.0 NNW 10.0 28.1 30.002 0.00 0 0.000
11/11/19 6:10p 33.0 85 29.0 5.0 NNW 11.0 28.3 30.005 0.00 0 0.000
11/11/19 6:05p 33.0 85 29.0 7.0 NNW 13.0 26.7 30.006 0.00 0 0.000
11/11/19 6:00p 33.1 85 29.1 6.0 NW 13.0 27.5 30.007 0.00 0 0.001
11/11/19 5:55p 33.3 85 29.3 6.0 NNW 16.0 27.8 30.003 0.00 0 0.000
11/11/19 5:50p 33.5 85 29.5 8.0 NNW 16.0 26.7 30.003 0.00 0 0.000
11/11/19 5:45p 33.9 85 29.9 8.0 NNW 17.0 27.2 30.008 0.00 0 0.000
11/11/19 5:40p 34.3 85 30.3 9.0 NW 18.0 27.1 30.006 0.01 0 0.000
11/11/19 5:35p 34.6 85 30.6 7.0 NW 11.0 28.6 30.000 0.01 0 0.000
11/11/19 5:30p 34.7 85 30.7 8.0 NW 15.0 28.1 29.993 0.00 0 0.000
11/11/19 5:25p 34.9 85 30.8 8.0 NNW 18.0 28.4 29.985 0.01 0 0.000
11/11/19 5:20p 35.1 85 31.0 6.0 NNW 10.0 29.9 29.980 0.00 0 0.000
11/11/19 5:15p 35.2 85 31.1 7.0 NW 14.0 29.4 29.982 0.01 0 0.000
11/11/19 5:10p 35.4 84 31.0 7.0 NNW 12.0 29.6 29.979 0.00 0 0.000
11/11/19 5:05p 35.5 85 31.4 8.0 NNW 15.0 29.1 29.978 0.00 0 0.000
11/11/19 5:00p 35.8 84 31.4 6.0 NW 15.0 30.8 29.974 0.00 0 0.001
11/11/19 4:55p 35.9 84 31.5 5.0 NNW 11.0 31.7 29.968 0.01 0 0.000
11/11/19 4:50p 36.2 84 31.8 6.0 NNW 12.0 31.2 29.964 0.00 0 0.000
11/11/19 4:45p 36.4 84 32.0 6.0 NW 14.0 31.5 29.960 0.00 0 0.000
11/11/19 4:40p 36.6 83 31.9 6.0 N 13.0 31.7 29.956 0.00 0 0.000
11/11/19 4:35p 36.8 83 32.1 9.0 NW 17.0 30.2 29.955 0.00 0 0.000
11/11/19 4:30p 37.4 83 32.7 10.0 NW 19.0 30.4 29.952 0.00 0 0.000
11/11/19 4:25p 38.2 82 33.2 10.0 NNW 22.0 31.4 29.944 0.00 0 0.000
11/11/19 4:20p 39.5 82 34.5 10.0 NNW 22.0 33.0 29.940 0.00 0 0.000
11/11/19 4:15p 40.5 82 35.4 7.0 NNW 14.0 35.7 29.939 0.00 0 0.000
11/11/19 4:10p 41.6 82 36.5 9.0 NW 15.0 36.0 29.933 0.00 0 0.000
11/11/19 4:05p 43.3 81 37.9 10.0 NW 17.0 37.5 29.930 0.00 0 0.000
11/11/19 4:00p 45.6 84 41.0 6.0 NW 13.0 42.4 29.915 0.00 1 0.001
11/11/19 3:55p 45.7 84 41.1 6.0 NW 13.0 42.5 29.907 0.00 1 0.000
11/11/19 3:50p 45.9 83 41.0 4.0 NW 9.0 44.1 29.907 0.00 8 0.000
11/11/19 3:45p 46.0 83 41.1 5.0 WNW 11.0 43.5 29.900 0.00 14 0.000
11/11/19 3:40p 46.2 82 41.0 6.0 WNW 15.0 43.1 29.901 0.01 12 0.000
11/11/19 3:35p 46.6 82 41.4 9.0 WNW 16.0 41.9 29.906 0.00 5 0.000
11/11/19 3:30p 47.5 81 42.0 6.0 WNW 10.0 44.7 29.907 0.00 1 0.000
11/11/19 3:25p 48.1 81 42.5 4.0 WNW 11.0 46.7 29.906 0.00 5 0.000
11/11/19 3:20p 48.6 81 43.0 9.0 WNW 17.0 44.2 29.903 0.00 10 0.000
11/11/19 3:15p 49.7 80 43.8 6.0 WNW 17.0 47.3 29.898 0.00 15 0.000
11/11/19 3:10p 50.5 80 44.6 6.0 WNW 12.0 48.3 29.897 0.00 12 0.000
11/11/19 3:05p 51.0 80 45.0 7.0 WNW 13.0 48.4 29.895 0.00 10 0.000
11/11/19 3:00p 51.4 80 45.4 8.0 WNW 15.0 48.2 29.885 0.00 26 0.001
11/11/19 2:55p 51.7 81 46.1 3.0 WNW 8.0 51.6 29.886 0.00 28 0.000
11/11/19 2:50p 51.7 81 46.1 3.0 W 8.0 51.6 29.883 0.00 21 0.000
11/11/19 2:45p 51.8 80 45.8 4.0 W 9.0 51.0 29.884 0.00 15 0.000
11/11/19 2:40p 51.9 80 45.9 3.0 W 7.0 51.8 29.882 0.00 14 0.000
11/11/19 2:35p 52.1 81 46.4 3.0 W 8.0 52.0 29.883 0.00 14 0.000
11/11/19 2:30p 52.5 80 46.5 4.0 WNW 9.0 51.8 29.883 0.00 16 0.000
11/11/19 2:25p 53.1 80 47.1 3.0 WNW 10.0 53.1 29.881 0.00 37 0.000
11/11/19 2:20p 53.9 78 47.2 4.0 WNW 11.0 53.4 29.875 0.00 79 0.000
11/11/19 2:15p 54.8 76 47.4 3.0 WNW 7.0 54.8 29.874 0.00 58 0.000
11/11/19 2:10p 55.8 74 47.6 4.0 W 12.0 55.6 29.877 0.01 51 0.000
11/11/19 2:05p 57.2 69 47.1 5.0 W 12.0 56.6 29.876 0.00 39 0.000
11/11/19 2:00p 58.1 63 45.6 4.0 W 10.0 58.1 29.874 0.00 26 0.004
11/11/19 1:55p 58.5 63 45.9 3.0 SSW 10.0 58.5 29.867 0.00 45 0.000
11/11/19 1:50p 58.7 63 46.1 3.0 W 6.0 58.7 29.863 0.00 131 0.000
11/11/19 1:45p 58.5 63 45.9 3.0 S 7.0 58.5 29.863 0.00 201 0.000
11/11/19 1:40p 58.3 64 46.2 4.0 SSW 9.0 58.3 29.858 0.00 191 0.000
11/11/19 1:35p 58.2 64 46.1 2.0 W 5.0 58.2 29.865 0.00 156 0.000
11/11/19 1:30p 58.3 63 45.8 2.0 S 7.0 58.3 29.869 0.00 87 0.000
11/11/19 1:25p 58.4 63 45.8 3.0 W 9.0 58.4 29.868 0.00 82 0.000
11/11/19 1:20p 58.4 63 45.8 2.0 SSW 8.0 58.4 29.866 0.00 153 0.000
11/11/19 1:15p 58.4 64 46.3 3.0 WSW 11.0 58.4 29.864 0.00 167 0.000
11/11/19 1:10p 58.4 62 45.4 5.0 SSW 11.0 58.1 29.867 0.00 172 0.000
11/11/19 1:05p 58.5 62 45.5 3.0 SSW 9.0 58.5 29.867 0.00 174 0.000
11/11/19 1:00p 58.6 63 46.0 5.0 SSW 13.0 58.3 29.869 0.00 206 0.007
11/11/19 12:55p 58.6 63 46.0 4.0 SSW 8.0 58.6 29.872 0.00 254 0.000
11/11/19 12:50p 58.4 62 45.4 6.0 SSW 12.0 57.7 29.876 0.00 232 0.000
11/11/19 12:45p 58.5 62 45.5 6.0 S 15.0 57.8 29.873 0.00 230 0.000
11/11/19 12:40p 58.7 62 45.7 6.0 S 11.0 58.0 29.880 0.00 239 0.000
11/11/19 12:35p 58.6 62 45.6 3.0 SSE 11.0 58.6 29.882 0.00 205 0.000
11/11/19 12:30p 58.6 61 45.2 5.0 S 15.0 58.3 29.883 0.00 207 0.000
11/11/19 12:25p 58.8 61 45.4 6.0 S 10.0 58.2 29.891 0.00 204 0.000
11/11/19 12:20p 58.7 62 45.7 5.0 SSE 8.0 58.4 29.886 0.00 318 0.000
11/11/19 12:15p 58.8 60 44.9 5.0 SSW 10.0 58.6 29.893 0.00 338 0.000
11/11/19 12:10p 58.6 62 45.6 5.0 S 11.0 58.3 29.896 0.00 419 0.000
11/11/19 12:05p 59.1 61 45.7 5.0 S 10.0 58.9 29.896 0.00 524 0.000
11/11/19 12:00p 59.2 61 45.8 4.0 S 11.0 59.2 29.900 0.00 628 0.008
11/11/19 11:55a 58.7 63 46.1 4.0 S 8.0 58.7 29.905 0.00 603 0.000
11/11/19 11:50a 58.4 62 45.4 4.0 SSE 12.0 58.4 29.906 0.00 520 0.000
11/11/19 11:45a 57.6 64 45.5 3.0 S 6.0 57.6 29.912 0.00 510 0.000
11/11/19 11:40a 56.9 64 44.8 4.0 S 8.0 56.9 29.918 0.00 463 0.000
11/11/19 11:35a 56.2 66 45.0 4.0 S 9.0 56.0 29.926 0.00 298 0.000
11/11/19 11:30a 55.9 66 44.7 4.0 SSE 9.0 55.7 29.931 0.00 263 0.000
11/11/19 11:25a 55.6 66 44.4 2.0 W 6.0 55.6 29.934 0.00 244 0.000
11/11/19 11:20a 54.9 67 44.1 2.0 SSW 6.0 54.9 29.937 0.00 229 0.000
11/11/19 11:15a 54.5 67 43.8 3.0 SSW 9.0 54.5 29.937 0.00 187 0.000
11/11/19 11:10a 54.4 67 43.7 4.0 SSW 8.0 53.9 29.941 0.00 173 0.000
11/11/19 11:05a 54.4 67 43.7 4.0 S 9.0 53.9 29.938 0.00 169 0.000
11/11/19 11:00a 54.7 65 43.2 4.0 SSE 9.0 54.3 29.940 0.00 127 0.006
11/11/19 10:55a 55.7 64 43.7 6.0 SSW 12.0 54.4 29.941 0.00 266 0.000
11/11/19 10:50a 56.0 66 44.8 4.0 S 8.0 55.8 29.939 0.00 427 0.000
11/11/19 10:45a 55.5 67 44.7 3.0 SSE 5.0 55.5 29.939 0.00 425 0.000
11/11/19 10:40a 54.8 68 44.4 6.0 S 12.0 53.4 29.938 0.00 386 0.000
11/11/19 10:35a 54.4 67 43.7 5.0 S 9.0 53.4 29.938 0.00 377 0.000
11/11/19 10:30a 53.7 68 43.4 6.0 S 11.0 52.0 29.940 0.00 319 0.000
11/11/19 10:25a 53.5 68 43.2 8.0 S 15.0 50.7 29.943 0.00 162 0.000
11/11/19 10:20a 53.4 69 43.5 5.0 S 10.0 52.2 29.942 0.00 209 0.000
11/11/19 10:15a 53.1 69 43.2 7.0 S 13.0 50.9 29.944 0.00 186 0.000
11/11/19 10:10a 52.7 71 43.6 5.0 SSE 13.0 51.4 29.947 0.00 112 0.000
11/11/19 10:05a 52.0 72 43.3 5.0 S 11.0 50.6 29.950 0.00 101 0.000
11/11/19 10:00a 51.7 72 43.0 5.0 S 11.0 50.2 29.949 0.00 90 0.003
11/11/19 9:55a 51.5 72 42.8 3.0 SSE 11.0 51.4 29.952 0.00 103 0.000
11/11/19 9:50a 51.2 72 42.5 5.0 SSE 9.0 49.6 29.955 0.00 88 0.000
11/11/19 9:45a 51.0 72 42.3 5.0 S 7.0 49.4 29.956 0.00 82 0.000
11/11/19 9:40a 50.9 73 42.6 5.0 S 10.0 49.3 29.959 0.00 83 0.000
11/11/19 9:35a 50.8 73 42.5 5.0 S 9.0 49.2 29.960 0.00 119 0.000
11/11/19 9:30a 50.7 73 42.4 4.0 S 8.0 49.7 29.964 0.00 140 0.000
11/11/19 9:25a 50.3 74 42.3 4.0 SSE 10.0 49.2 29.965 0.00 154 0.000
11/11/19 9:20a 49.8 75 42.2 4.0 SSW 10.0 48.7 29.968 0.00 144 0.000
11/11/19 9:15a 49.3 76 42.1 4.0 SSW 10.0 48.1 29.968 0.00 144 0.000
11/11/19 9:10a 48.8 76 41.6 4.0 S 7.0 47.5 29.972 0.00 109 0.000
11/11/19 9:05a 48.6 76 41.4 4.0 SSW 8.0 47.3 29.975 0.00 93 0.000
11/11/19 9:00a 48.5 76 41.3 4.0 S 9.0 47.2 29.976 0.00 93 0.002
11/11/19 8:55a 48.4 76 41.2 4.0 S 7.0 47.0 29.976 0.00 77 0.000
11/11/19 8:50a 48.2 76 41.0 4.0 S 8.0 46.8 29.977 0.00 85 0.000
11/11/19 8:45a 48.0 77 41.1 4.0 S 8.0 46.6 29.976 0.00 93 0.000
11/11/19 8:40a 47.7 77 40.8 4.0 S 8.0 46.2 29.976 0.00 100 0.000
11/11/19 8:35a 47.6 77 40.7 3.0 SSW 5.0 47.0 29.977 0.00 58 0.000
11/11/19 8:30a 47.5 77 40.6 4.0 S 9.0 46.0 29.979 0.00 56 0.000
11/11/19 8:25a 47.4 77 40.6 4.0 S 7.0 45.9 29.976 0.00 49 0.000
11/11/19 8:20a 47.2 77 40.4 3.0 S 8.0 46.5 29.979 0.00 49 0.000
11/11/19 8:15a 47.2 77 40.4 3.0 S 6.0 46.5 29.978 0.00 46 0.000
11/11/19 8:10a 47.1 78 40.6 3.0 S 8.0 46.4 29.978 0.00 53 0.000
11/11/19 8:05a 46.9 78 40.4 2.0 S 5.0 46.9 29.979 0.00 47 0.000
11/11/19 8:00a 46.7 78 40.2 2.0 S 6.0 46.7 29.979 0.00 39 0.001
11/11/19 7:55a 46.5 78 40.0 2.0 S 7.0 46.5 29.979 0.00 30 0.000
11/11/19 7:50a 46.4 78 39.9 2.0 S 4.0 46.4 29.980 0.00 19 0.000
11/11/19 7:45a 46.2 78 39.7 2.0 S 5.0 46.2 29.979 0.00 12 0.000
11/11/19 7:40a 46.1 78 39.6 2.0 SSE 4.0 46.1 29.979 0.00 9 0.000
11/11/19 7:35a 46.0 78 39.5 1.0 S 3.0 46.0 29.979 0.00 6 0.000
11/11/19 7:30a 46.0 78 39.5 1.0 S 2.0 46.0 29.979 0.00 2 0.000
11/11/19 7:25a 46.0 78 39.5 1.0 S 3.0 46.0 29.978 0.00 0 0.000
11/11/19 7:20a 45.9 78 39.4 1.0 S 3.0 45.9 29.981 0.00 0 0.000
11/11/19 7:15a 45.9 78 39.4 1.0 S 3.0 45.9 29.981 0.00 0 0.000
11/11/19 7:10a 45.8 79 39.7 1.0 SSW 4.0 45.8 29.980 0.00 0 0.000
11/11/19 7:05a 45.7 79 39.6 2.0 S 4.0 45.7 29.978 0.00 0 0.000
11/11/19 7:00a 45.6 78 39.1 2.0 S 5.0 45.6 29.974 0.00 0 0.001
11/11/19 6:55a 45.7 78 39.2 1.0 S 4.0 45.7 29.973 0.00 0 0.000
11/11/19 6:50a 45.8 78 39.3 1.0 S 3.0 45.8 29.975 0.00 0 0.000
11/11/19 6:45a 45.8 78 39.3 2.0 S 4.0 45.8 29.978 0.00 0 0.000
11/11/19 6:40a 45.8 78 39.3 2.0 S 4.0 45.8 29.981 0.00 0 0.000
11/11/19 6:35a 45.9 77 39.1 1.0 S 4.0 45.9 29.979 0.00 0 0.000
11/11/19 6:30a 46.0 78 39.5 2.0 S 5.0 46.0 29.982 0.00 0 0.000
11/11/19 6:25a 46.0 78 39.5 1.0 S 3.0 46.0 29.988 0.00 0 0.000
11/11/19 6:20a 46.0 78 39.5 2.0 S 3.0 46.0 29.991 0.00 0 0.000
11/11/19 6:15a 46.0 77 39.2 2.0 SSW 4.0 46.0 29.991 0.00 0 0.000
11/11/19 6:10a 46.1 77 39.3 2.0 SSW 4.0 46.1 29.989 0.00 0 0.000
11/11/19 6:05a 46.3 77 39.5 2.0 S 3.0 46.3 29.992 0.00 0 0.000
11/11/19 6:00a 46.3 77 39.5 2.0 S 3.0 46.3 29.993 0.00 0 0.001
11/11/19 5:55a 46.3 77 39.5 2.0 S 4.0 46.3 29.994 0.00 0 0.000
11/11/19 5:50a 46.5 77 39.7 3.0 SSE 5.0 45.8 29.991 0.00 0 0.000
11/11/19 5:45a 46.7 76 39.5 2.0 SSW 4.0 46.7 29.993 0.00 0 0.000
11/11/19 5:40a 46.9 76 39.7 2.0 S 4.0 46.9 29.995 0.00 0 0.000
11/11/19 5:35a 47.0 76 39.8 2.0 SSW 4.0 47.0 29.995 0.00 0 0.000
11/11/19 5:30a 47.2 76 40.0 2.0 SSW 4.0 47.2 29.992 0.00 0 0.000
11/11/19 5:25a 47.3 75 39.8 2.0 S 4.0 47.3 29.991 0.00 0 0.000
11/11/19 5:20a 47.4 75 39.9 2.0 S 3.0 47.4 29.990 0.00 0 0.000
11/11/19 5:15a 47.5 75 40.0 2.0 S 4.0 47.5 29.991 0.00 0 0.000
11/11/19 5:10a 47.6 75 40.1 2.0 S 5.0 47.6 29.992 0.00 0 0.000
11/11/19 5:05a 47.8 74 39.9 2.0 S 3.0 47.8 29.990 0.00 0 0.000
11/11/19 5:00a 47.9 75 40.4 2.0 SSE 4.0 47.9 29.988 0.00 0 0.001
11/11/19 4:55a 48.1 74 40.2 2.0 SSW 4.0 48.1 29.990 0.00 0 0.000
11/11/19 4:50a 48.2 74 40.3 2.0 SSW 4.0 48.2 29.990 0.00 0 0.000
11/11/19 4:45a 48.3 74 40.4 2.0 SSW 4.0 48.3 29.991 0.00 0 0.000
11/11/19 4:40a 48.5 74 40.6 2.0 S 4.0 48.5 29.992 0.00 0 0.000
11/11/19 4:35a 48.5 74 40.6 2.0 S 4.0 48.5 29.993 0.00 0 0.000
11/11/19 4:30a 48.6 74 40.7 2.0 S 6.0 48.6 29.992 0.00 0 0.000
11/11/19 4:25a 48.7 74 40.8 2.0 S 4.0 48.7 29.988 0.00 0 0.000
11/11/19 4:20a 48.8 73 40.5 2.0 S 5.0 48.8 29.989 0.00 0 0.000
11/11/19 4:15a 48.8 73 40.5 2.0 SSW 5.0 48.8 29.988 0.00 0 0.000
11/11/19 4:10a 48.9 73 40.6 2.0 SSE 4.0 48.9 29.987 0.00 0 0.000
11/11/19 4:05a 48.8 74 40.9 2.0 SSE 5.0 48.8 29.990 0.00 0 0.000
11/11/19 4:00a 48.7 74 40.8 2.0 SSE 4.0 48.7 29.987 0.00 0 0.001
11/11/19 3:55a 48.6 74 40.7 2.0 S 4.0 48.6 29.985 0.00 0 0.000
11/11/19 3:50a 48.4 75 40.8 2.0 S 5.0 48.4 29.987 0.00 0 0.000
11/11/19 3:45a 48.3 75 40.7 2.0 S 4.0 48.3 29.989 0.00 0 0.000
11/11/19 3:40a 48.3 75 40.7 1.0 S 3.0 48.3 29.992 0.00 0 0.000
11/11/19 3:35a 48.3 75 40.7 1.0 S 2.0 48.3 29.995 0.00 0 0.000
11/11/19 3:30a 48.5 74 40.6 0.0 S 2.0 48.5 29.995 0.00 0 0.000
11/11/19 3:25a 48.7 74 40.8 0.0 --- 0.0 48.7 29.995 0.00 0 0.000
11/11/19 3:20a 48.8 74 40.9 0.0 --- 0.0 48.8 29.998 0.00 0 0.000
11/11/19 3:15a 48.9 73 40.6 0.0 --- 0.0 48.9 30.001 0.00 0 0.000
11/11/19 3:10a 49.0 73 40.7 0.0 --- 0.0 49.0 30.001 0.00 0 0.000
11/11/19 3:05a 49.0 73 40.7 0.0 --- 0.0 49.0 30.003 0.00 0 0.000
11/11/19 3:00a 49.1 73 40.8 0.0 --- 0.0 49.1 30.001 0.00 0 0.001
11/11/19 2:55a 49.1 73 40.8 1.0 S 2.0 49.1 30.001 0.00 0 0.000
11/11/19 2:50a 49.2 73 40.9 1.0 S 2.0 49.2 30.000 0.00 0 0.000
11/11/19 2:45a 49.3 72 40.7 1.0 S 2.0 49.3 29.999 0.00 0 0.000
11/11/19 2:40a 49.4 72 40.7 1.0 S 3.0 49.4 29.994 0.00 0 0.000
11/11/19 2:35a 49.6 72 40.9 1.0 S 3.0 49.6 29.994 0.00 0 0.000
11/11/19 2:30a 49.6 72 40.9 2.0 S 3.0 49.6 29.993 0.00 0 0.000
11/11/19 2:25a 49.6 72 40.9 1.0 S 3.0 49.6 29.995 0.00 0 0.000
11/11/19 2:20a 49.6 72 40.9 2.0 SSW 6.0 49.6 29.994 0.00 0 0.000
11/11/19 2:15a 49.4 73 41.1 2.0 S 4.0 49.4 29.993 0.00 0 0.000
11/11/19 2:10a 49.4 73 41.1 1.0 S 3.0 49.4 29.994 0.00 0 0.000
11/11/19 2:05a 49.4 73 41.1 1.0 S 4.0 49.4 29.995 0.00 0 0.000
11/11/19 2:00a 49.4 73 41.1 1.0 S 3.0 49.4 29.995 0.00 0 0.001
11/11/19 1:55a 49.3 73 41.0 1.0 S 3.0 49.3 29.996 0.00 0 0.000
11/11/19 1:50a 49.2 73 40.9 1.0 S 2.0 49.2 29.996 0.00 0 0.000
11/11/19 1:45a 49.1 73 40.8 1.0 S 2.0 49.1 29.995 0.00 0 0.000
11/11/19 1:40a 48.9 74 41.0 1.0 S 3.0 48.9 29.997 0.00 0 0.000
11/11/19 1:35a 48.6 75 41.0 2.0 S 3.0 48.6 29.995 0.00 0 0.000
11/11/19 1:30a 48.2 75 40.6 1.0 S 2.0 48.2 29.994 0.00 0 0.000
11/11/19 1:25a 47.9 76 40.7 2.0 S 3.0 47.9 29.993 0.00 0 0.000
11/11/19 1:20a 47.6 76 40.4 2.0 S 3.0 47.6 29.991 0.00 0 0.000
11/11/19 1:15a 47.4 77 40.6 1.0 S 2.0 47.4 29.990 0.00 0 0.000
11/11/19 1:10a 46.8 78 40.3 1.0 S 2.0 46.8 29.991 0.00 0 0.000
11/11/19 1:05a 46.2 78 39.7 0.0 S 2.0 46.2 29.991 0.00 0 0.000
11/11/19 1:00a 45.9 78 39.4 0.0 --- 0.0 45.9 29.995 0.00 0 0.001
11/11/19 12:55a 45.9 77 39.1 0.0 --- 0.0 45.9 29.994 0.00 0 0.000
11/11/19 12:50a 46.2 77 39.4 0.0 --- 0.0 46.2 29.995 0.00 0 0.000
11/11/19 12:45a 46.4 77 39.6 0.0 --- 0.0 46.4 29.995 0.00 0 0.000
11/11/19 12:40a 46.5 76 39.3 0.0 --- 0.0 46.5 29.992 0.00 0 0.000
11/11/19 12:35a 46.7 76 39.5 0.0 --- 0.0 46.7 29.991 0.00 0 0.000
11/11/19 12:30a 46.6 77 39.8 0.0 --- 0.0 46.6 29.990 0.00 0 0.000
11/11/19 12:25a 46.5 77 39.7 0.0 --- 0.0 46.5 29.992 0.00 0 0.000
11/11/19 12:20a 46.6 76 39.4 0.0 S 1.0 46.6 29.994 0.00 0 0.000
11/11/19 12:15a 46.7 77 39.9 1.0 S 2.0 46.7 29.992 0.00 0 0.000
11/11/19 12:10a 46.4 77 39.6 1.0 S 2.0 46.4 29.992 0.00 0 0.000
11/11/19 12:05a 46.2 77 39.4 1.0 S 2.0 46.2 29.992 0.00 0 0.000
11/11/19 12:00a 46.0 77 39.2 1.0 S 2.0 46.0 29.991 0.00 0 0.001

13,070 Page Views